createdAt,value
2017-11-26T00:03:10.713Z,2.80
2017-11-26T00:05:38.357Z,3.40
2017-11-26T00:08:06.458Z,2.33
2017-11-26T00:10:35.555Z,2.57
2017-11-26T00:13:03.183Z,2.67
2017-11-26T00:15:31.733Z,2.30
2017-11-26T00:17:59.412Z,2.53
2017-11-26T00:20:27.428Z,2.67
2017-11-26T00:22:55.599Z,3.10
2017-11-26T00:25:24.138Z,3.83
2017-11-26T00:27:52.595Z,4.20
2017-11-26T00:30:20.221Z,5.30
2017-11-26T00:32:48.861Z,4.80
2017-11-26T00:35:16.503Z,5.20
2017-11-26T00:37:44.120Z,5.13
2017-11-26T00:40:12.790Z,5.43
2017-11-26T00:42:40.440Z,5.00
2017-11-26T00:45:08.065Z,5.00
2017-11-26T00:47:35.772Z,5.13
2017-11-26T00:50:04.259Z,4.77
2017-11-26T00:52:31.892Z,4.87
2017-11-26T00:54:59.597Z,5.10
2017-11-26T00:57:27.220Z,4.30
2017-11-26T00:59:54.857Z,4.63
2017-11-26T01:02:23.348Z,4.53
2017-11-26T01:04:50.991Z,4.20
2017-11-26T01:07:18.620Z,3.87
2017-11-26T01:09:46.778Z,4.47
2017-11-26T01:12:14.406Z,4.00
2017-11-26T01:14:42.038Z,5.37
2017-11-26T01:17:10.744Z,4.60
2017-11-26T01:24:56.498Z,5.53
2017-11-26T01:27:24.172Z,5.50
2017-11-26T01:29:51.802Z,5.03
2017-11-26T01:32:19.445Z,4.43
2017-11-26T01:34:47.164Z,5.47
2017-11-26T01:37:14.803Z,6.17
2017-11-26T01:39:42.431Z,5.50
2017-11-26T01:42:10.105Z,5.20
2017-11-26T01:44:37.734Z,5.90
2017-11-26T01:47:06.186Z,5.53
2017-11-26T01:49:33.888Z,5.10
2017-11-26T01:52:01.528Z,4.83
2017-11-26T01:54:29.974Z,5.87
2017-11-26T01:56:58.622Z,3.37
2017-11-26T01:59:26.253Z,3.97
2017-11-26T02:01:54.849Z,3.83
2017-11-26T02:04:22.544Z,4.17
2017-11-26T02:06:50.168Z,4.63
2017-11-26T02:09:17.802Z,4.77
2017-11-26T02:11:46.259Z,4.43
2017-11-26T02:14:13.891Z,4.50
2017-11-26T02:16:41.518Z,4.83
2017-11-26T02:19:10.162Z,5.40
2017-11-26T02:21:37.782Z,5.40
2017-11-26T02:24:05.430Z,2.70
2017-11-26T02:26:33.961Z,1.83
2017-11-26T02:29:02.427Z,1.53
2017-11-26T02:37:12.834Z,0.80
2017-11-26T02:39:40.472Z,0.80
2017-11-26T02:42:08.097Z,0.80
2017-11-26T02:44:35.801Z,1.67
2017-11-26T02:47:03.431Z,2.07
2017-11-26T02:49:31.058Z,3.97
2017-11-26T02:51:58.747Z,2.57
2017-11-26T02:54:26.373Z,2.50
2017-11-26T02:56:54.016Z,1.10
2017-11-26T02:59:21.715Z,1.00
2017-11-26T03:01:49.346Z,1.50
2017-11-26T03:04:16.973Z,0.97
2017-11-26T03:06:44.657Z,1.20
2017-11-26T03:09:13.233Z,1.00
2017-11-26T03:11:43.425Z,0.80
2017-11-26T03:14:10.416Z,1.03
2017-11-26T03:16:38.050Z,0.70
2017-11-26T03:19:05.682Z,0.70
2017-11-26T03:21:33.358Z,0.50
2017-11-26T03:24:01.072Z,0.60
2017-11-26T03:26:28.621Z,0.47
2017-11-26T03:28:56.315Z,0.70
2017-11-26T03:31:23.963Z,0.73
2017-11-26T03:33:51.585Z,0.90
2017-11-26T03:36:19.265Z,0.63
2017-11-26T03:38:47.841Z,0.70
2017-11-26T03:41:15.462Z,1.00
2017-11-26T03:43:43.999Z,0.67
2017-11-26T03:46:12.132Z,0.90
2017-11-26T03:51:18.931Z,0.85
2017-11-26T03:53:46.564Z,0.77
2017-11-26T03:56:14.194Z,0.60
2017-11-26T03:58:41.875Z,0.70
2017-11-26T04:01:11.582Z,0.70
2017-11-26T04:03:39.204Z,0.50
2017-11-26T04:06:06.902Z,0.70
2017-11-26T04:08:34.525Z,0.60
2017-11-26T04:11:02.976Z,0.53
2017-11-26T04:13:30.654Z,0.70
2017-11-26T04:15:58.279Z,0.40
2017-11-26T04:18:25.913Z,0.50
2017-11-26T04:20:53.584Z,0.60
2017-11-26T04:23:21.215Z,0.53
2017-11-26T04:25:48.844Z,0.63
2017-11-26T04:28:16.553Z,0.50
2017-11-26T04:30:44.189Z,0.50
2017-11-26T04:33:11.817Z,0.50
2017-11-26T04:35:39.503Z,0.50
2017-11-26T04:38:07.133Z,0.60
2017-11-26T04:40:34.768Z,0.40
2017-11-26T04:43:03.300Z,0.50
2017-11-26T04:45:30.934Z,0.40
2017-11-26T04:47:58.561Z,0.60
2017-11-26T04:50:26.248Z,0.50
2017-11-26T04:52:53.877Z,0.60
2017-11-26T04:55:21.543Z,0.60
2017-11-26T04:57:49.240Z,0.63
2017-11-26T05:00:16.863Z,0.70
2017-11-26T05:02:45.425Z,0.70
2017-11-26T05:05:13.102Z,0.80
2017-11-26T05:07:40.733Z,0.90
2017-11-26T05:10:08.350Z,0.70
2017-11-26T05:12:36.050Z,0.80
2017-11-26T05:15:03.677Z,0.90
2017-11-26T05:20:12.466Z,1.10
2017-11-26T05:22:40.102Z,0.70
2017-11-26T05:25:08.673Z,0.70
2017-11-26T05:27:36.376Z,0.67
2017-11-26T05:30:04.002Z,0.70
2017-11-26T05:32:31.637Z,0.60
2017-11-26T05:34:59.332Z,0.60
2017-11-26T05:37:27.910Z,0.60
2017-11-26T05:39:55.555Z,0.60
2017-11-26T05:42:23.240Z,0.80
2017-11-26T05:44:51.349Z,0.73
2017-11-26T05:47:18.984Z,0.70
2017-11-26T05:49:47.504Z,0.97
2017-11-26T05:52:15.127Z,2.50
2017-11-26T05:54:43.709Z,1.50
2017-11-26T05:57:11.405Z,1.40
2017-11-26T05:59:39.026Z,1.10
2017-11-26T06:02:06.659Z,0.60
2017-11-26T06:04:34.342Z,0.70
2017-11-26T06:07:01.983Z,0.90
2017-11-26T06:09:29.611Z,0.83
2017-11-26T06:11:57.299Z,1.20
2017-11-26T06:14:25.866Z,1.20
2017-11-26T06:16:54.525Z,1.60
2017-11-26T06:19:22.203Z,1.20
2017-11-26T06:21:49.825Z,1.20
2017-11-26T06:24:17.463Z,4.97
2017-11-26T06:26:45.900Z,4.03
2017-11-26T06:29:13.510Z,3.73
2017-11-26T06:31:41.134Z,4.00
2017-11-26T06:34:08.808Z,3.47
2017-11-26T06:36:36.449Z,1.90
2017-11-26T06:39:04.075Z,1.20
2017-11-26T06:41:31.778Z,1.70
2017-11-26T06:44:00.803Z,2.30
2017-11-26T06:49:07.598Z,1.80
2017-11-26T06:51:35.232Z,2.07
2017-11-26T06:54:02.858Z,1.47
2017-11-26T06:56:30.556Z,1.50
2017-11-26T06:58:58.225Z,1.60
2017-11-26T07:01:25.849Z,2.00
2017-11-26T07:03:53.539Z,2.40
2017-11-26T07:06:21.165Z,1.83
2017-11-26T07:08:48.787Z,2.50
2017-11-26T07:11:17.333Z,2.00
2017-11-26T07:13:44.970Z,2.50
2017-11-26T07:16:13.429Z,2.60
2017-11-26T07:18:41.113Z,2.10
2017-11-26T07:21:08.764Z,2.00
2017-11-26T07:23:36.394Z,1.77
2017-11-26T07:26:04.081Z,2.33
2017-11-26T07:28:31.721Z,2.10
2017-11-26T07:30:59.370Z,2.60
2017-11-26T07:33:27.054Z,3.20
2017-11-26T07:35:54.675Z,3.47
2017-11-26T07:38:22.297Z,2.90
2017-11-26T07:40:49.998Z,2.20
2017-11-26T07:43:20.785Z,2.50
2017-11-26T07:45:48.415Z,2.47
2017-11-26T07:48:16.097Z,2.90
2017-11-26T07:50:43.731Z,2.80
2017-11-26T07:55:54.741Z,4.07
2017-11-26T07:58:22.364Z,4.20
2017-11-26T08:00:50.026Z,3.83
2017-11-26T08:03:17.767Z,3.83
2017-11-26T08:05:45.403Z,4.53
2017-11-26T08:08:13.031Z,4.13
2017-11-26T08:10:41.557Z,4.80
2017-11-26T08:13:10.016Z,4.70
2017-11-26T08:15:38.512Z,4.37
2017-11-26T08:18:07.022Z,5.37
2017-11-26T08:20:34.676Z,7.33
2017-11-26T08:23:03.128Z,7.30
2017-11-26T08:25:30.838Z,6.23
2017-11-26T08:27:59.289Z,6.37
2017-11-26T08:30:26.946Z,5.80
2017-11-26T08:32:54.623Z,6.23
2017-11-26T08:35:22.243Z,6.97
2017-11-26T08:37:50.809Z,6.37
2017-11-26T08:40:18.509Z,6.70
2017-11-26T08:42:46.966Z,6.87
2017-11-26T08:45:14.591Z,7.33
2017-11-26T08:47:42.287Z,6.80
2017-11-26T08:50:09.934Z,7.00
2017-11-26T08:52:37.551Z,6.93
2017-11-26T08:55:05.238Z,14.83
2017-11-26T08:57:32.872Z,16.07
2017-11-26T09:00:00.505Z,6.17
2017-11-26T09:02:28.551Z,6.27
2017-11-26T09:10:19.157Z,3.50
2017-11-26T09:12:46.853Z,4.37
2017-11-26T09:15:14.487Z,3.80
2017-11-26T09:17:42.128Z,2.87
2017-11-26T09:20:09.813Z,3.60
2017-11-26T09:22:37.468Z,4.73
2017-11-26T09:25:05.152Z,4.27
2017-11-26T09:27:32.838Z,4.83
2017-11-26T09:30:00.479Z,3.97
2017-11-26T09:32:28.094Z,4.20
2017-11-26T09:34:55.796Z,4.53
2017-11-26T09:37:23.428Z,4.10
2017-11-26T09:39:51.041Z,4.37
2017-11-26T09:42:18.735Z,4.70
2017-11-26T09:44:46.355Z,4.33
2017-11-26T09:47:13.990Z,4.37
2017-11-26T09:49:41.699Z,4.00
2017-11-26T09:52:09.325Z,3.97
2017-11-26T09:54:36.963Z,3.90
2017-11-26T09:57:04.652Z,1.80
2017-11-26T09:59:32.270Z,1.40
2017-11-26T10:02:00.190Z,0.90
2017-11-26T10:04:28.772Z,0.60
2017-11-26T10:06:56.389Z,0.70
2017-11-26T10:09:24.005Z,0.73
2017-11-26T10:11:51.687Z,0.50
2017-11-26T10:14:19.323Z,0.50
2017-11-26T10:16:46.943Z,0.40
2017-11-26T10:19:14.636Z,0.50
2017-11-26T10:21:42.258Z,0.40
2017-11-26T10:24:10.634Z,0.30
2017-11-26T10:26:38.329Z,0.40
2017-11-26T10:29:05.949Z,0.30
2017-11-26T10:31:33.562Z,0.40
2017-11-26T10:36:42.153Z,0.45
2017-11-26T10:39:09.837Z,0.30
2017-11-26T10:41:37.526Z,0.50
2017-11-26T10:44:05.181Z,1.00
2017-11-26T10:46:32.757Z,0.73
2017-11-26T10:49:00.440Z,0.60
2017-11-26T10:51:28.061Z,0.50
2017-11-26T10:53:56.522Z,0.60
2017-11-26T10:56:24.192Z,0.40
2017-11-26T10:58:51.820Z,0.50
2017-11-26T11:01:19.807Z,0.50
2017-11-26T11:03:47.507Z,0.50
2017-11-26T11:06:15.120Z,0.70
2017-11-26T11:08:42.752Z,0.47
2017-11-26T11:11:11.334Z,0.90
2017-11-26T11:13:38.950Z,0.30
2017-11-26T11:16:06.590Z,0.30
2017-11-26T11:18:34.246Z,0.30
2017-11-26T11:21:02.790Z,0.53
2017-11-26T11:23:30.269Z,4.20
2017-11-26T11:25:57.977Z,2.60
2017-11-26T11:28:25.601Z,3.30
2017-11-26T11:30:53.220Z,3.10
2017-11-26T11:33:20.925Z,3.53
2017-11-26T11:35:48.545Z,2.60
2017-11-26T11:38:16.160Z,1.47
2017-11-26T11:40:43.836Z,2.00
2017-11-26T11:43:11.469Z,1.90
2017-11-26T11:45:39.092Z,1.70
2017-11-26T11:50:48.857Z,1.77
2017-11-26T11:53:16.545Z,1.67
2017-11-26T11:58:15.872Z,1.30
2017-11-26T12:00:43.578Z,2.00
2017-11-26T12:03:11.205Z,1.70
2017-11-26T12:05:38.828Z,2.10
2017-11-26T12:08:06.533Z,1.70
2017-11-26T12:10:34.169Z,1.63
2017-11-26T12:13:01.802Z,1.63
2017-11-26T12:15:29.487Z,2.60
2017-11-26T12:17:57.116Z,2.57
2017-11-26T12:20:24.745Z,2.33
2017-11-26T12:22:52.835Z,1.10
2017-11-26T12:25:20.456Z,1.90
2017-11-26T12:27:48.071Z,2.13
2017-11-26T12:30:15.780Z,2.20
2017-11-26T12:32:43.406Z,1.60
2017-11-26T12:35:11.035Z,1.60
2017-11-26T12:37:38.733Z,1.50
2017-11-26T12:40:06.368Z,1.20
2017-11-26T12:42:33.991Z,1.70
2017-11-26T12:45:01.677Z,1.93
2017-11-26T12:47:29.298Z,1.13
2017-11-26T12:49:56.928Z,1.60
2017-11-26T12:52:24.588Z,1.60
2017-11-26T12:54:52.207Z,1.60
2017-11-26T12:57:19.826Z,1.70
2017-11-26T12:59:47.532Z,1.90
2017-11-26T13:02:15.145Z,2.10
2017-11-26T13:04:42.768Z,1.50
2017-11-26T13:07:10.449Z,1.53
2017-11-26T13:09:38.091Z,1.63
2017-11-26T13:14:47.819Z,2.55
2017-11-26T13:17:15.446Z,2.13
2017-11-26T13:19:43.069Z,1.57
2017-11-26T13:22:10.758Z,1.40
2017-11-26T13:24:38.385Z,1.70
2017-11-26T13:27:06.006Z,1.33
2017-11-26T13:29:33.675Z,2.50
2017-11-26T13:32:01.308Z,1.97
2017-11-26T13:34:28.929Z,1.60
2017-11-26T13:36:56.626Z,1.93
2017-11-26T13:39:24.253Z,1.73
2017-11-26T13:41:51.883Z,1.90
2017-11-26T13:44:19.553Z,1.50
2017-11-26T13:46:47.175Z,1.90
2017-11-26T13:49:14.812Z,3.33
2017-11-26T13:51:42.506Z,2.10
2017-11-26T13:54:10.128Z,1.97
2017-11-26T13:56:38.276Z,1.40
2017-11-26T13:59:06.282Z,1.77
2017-11-26T14:01:33.715Z,1.20
2017-11-26T14:04:01.340Z,1.77
2017-11-26T14:06:29.011Z,1.00
2017-11-26T14:08:56.650Z,1.40
2017-11-26T14:11:24.277Z,0.93
2017-11-26T14:13:51.972Z,1.23
2017-11-26T14:16:19.863Z,1.77
2017-11-26T14:18:48.011Z,1.97
2017-11-26T14:21:15.615Z,1.77
2017-11-26T14:23:43.242Z,1.87
2017-11-26T14:26:10.866Z,1.60
2017-11-26T14:28:38.577Z,2.00
2017-11-26T14:31:06.197Z,1.40
2017-11-26T14:36:12.992Z,1.20
2017-11-26T14:38:40.616Z,1.60
2017-11-26T14:41:08.249Z,1.00
2017-11-26T14:43:35.921Z,1.83
2017-11-26T14:46:03.540Z,1.63
2017-11-26T14:48:31.161Z,1.57
2017-11-26T14:50:59.080Z,2.17
2017-11-26T14:53:26.873Z,1.80
2017-11-26T14:55:54.429Z,1.87
2017-11-26T14:58:22.108Z,1.73
2017-11-26T15:03:29.795Z,2.58
2017-11-26T15:05:57.412Z,2.87
2017-11-26T15:08:25.035Z,2.43
2017-11-26T15:10:52.724Z,2.83
2017-11-26T15:13:20.381Z,3.00
2017-11-26T15:15:48.007Z,3.20
2017-11-26T15:18:18.779Z,2.93
2017-11-26T15:20:46.459Z,1.70
2017-11-26T15:23:15.045Z,1.80
2017-11-26T15:25:43.680Z,2.30
2017-11-26T15:28:11.300Z,2.10
2017-11-26T15:30:38.922Z,2.00
2017-11-26T15:35:48.306Z,1.40
2017-11-26T15:38:15.999Z,1.50
2017-11-26T15:40:43.616Z,1.20
2017-11-26T15:43:11.223Z,1.00
2017-11-26T15:45:38.896Z,1.47
2017-11-26T15:48:06.521Z,2.83
2017-11-26T15:50:34.139Z,4.07
2017-11-26T15:53:01.840Z,5.30
2017-11-26T15:55:29.469Z,5.70
2017-11-26T15:57:57.923Z,5.30
2017-11-26T16:00:25.597Z,5.00
2017-11-26T16:02:53.226Z,4.77
2017-11-26T16:05:20.836Z,4.83
2017-11-26T16:07:48.515Z,4.83
2017-11-26T16:10:17.078Z,4.60
2017-11-26T16:12:48.314Z,2.20
2017-11-26T16:15:15.440Z,2.20
2017-11-26T16:17:43.057Z,3.40
2017-11-26T16:20:10.679Z,2.77
2017-11-26T16:22:38.380Z,3.60
2017-11-26T16:25:06.876Z,3.70
2017-11-26T16:27:34.514Z,5.17
2017-11-26T16:30:02.195Z,5.03
2017-11-26T16:32:29.810Z,4.40
2017-11-26T16:34:57.440Z,4.03
2017-11-26T16:37:25.244Z,6.93
2017-11-26T16:39:52.887Z,6.53
2017-11-26T16:45:01.669Z,5.62
2017-11-26T16:47:29.392Z,5.47
2017-11-26T16:49:56.903Z,4.93
2017-11-26T16:52:24.577Z,4.77
2017-11-26T16:54:52.203Z,4.53
2017-11-26T16:57:19.837Z,4.40
2017-11-26T16:59:47.505Z,4.27
2017-11-26T17:02:15.132Z,4.70
2017-11-26T17:04:42.745Z,6.67
2017-11-26T17:07:10.427Z,5.87
2017-11-26T17:09:38.052Z,5.00
2017-11-26T17:12:05.678Z,7.70
2017-11-26T17:14:33.380Z,6.23
2017-11-26T17:17:00.998Z,4.23
2017-11-26T17:19:28.626Z,4.33
2017-11-26T17:21:56.289Z,3.40
2017-11-26T17:24:23.916Z,2.70
2017-11-26T17:26:51.534Z,2.50
2017-11-26T17:29:19.213Z,3.20
2017-11-26T17:31:46.824Z,4.40
2017-11-26T17:34:15.289Z,4.43
2017-11-26T17:36:43.003Z,3.47
2017-11-26T17:39:10.891Z,11.97
2017-11-26T17:41:39.334Z,10.30
2017-11-26T17:44:07.033Z,6.90
2017-11-26T17:46:34.663Z,2.80
2017-11-26T17:49:02.291Z,5.53
2017-11-26T17:51:29.980Z,4.00
2017-11-26T17:53:57.597Z,4.50
2017-11-26T17:56:25.224Z,4.17
2017-11-26T17:58:52.926Z,4.00
2017-11-26T18:01:20.561Z,4.80
2017-11-26T18:03:48.190Z,4.70
2017-11-26T18:06:15.887Z,3.50
2017-11-26T18:11:22.669Z,5.85
2017-11-26T18:13:51.079Z,4.37
2017-11-26T18:16:19.470Z,5.80
2017-11-26T18:18:47.598Z,4.90
2017-11-26T18:21:15.214Z,4.20
2017-11-26T18:23:42.847Z,4.27
2017-11-26T18:26:10.540Z,3.80
2017-11-26T18:28:39.106Z,3.67
2017-11-26T18:31:06.734Z,4.30
2017-11-26T18:33:35.237Z,3.40
2017-11-26T18:36:02.865Z,3.80
2017-11-26T18:38:30.508Z,4.70
2017-11-26T18:40:58.188Z,3.90
2017-11-26T18:43:26.355Z,4.20
2017-11-26T18:45:54.972Z,4.50
2017-11-26T18:48:22.662Z,4.93
2017-11-26T18:53:31.429Z,6.40
2017-11-26T18:55:59.054Z,5.60
2017-11-26T18:58:26.679Z,4.87
2017-11-26T19:00:54.829Z,4.80
2017-11-26T19:03:22.470Z,4.50
2017-11-26T19:05:50.096Z,3.67
2017-11-26T19:08:17.807Z,3.53
2017-11-26T19:10:45.416Z,3.03
2017-11-26T19:13:13.526Z,3.17
2017-11-26T19:15:41.758Z,2.83
2017-11-26T19:18:09.374Z,3.40
2017-11-26T19:20:37.044Z,4.30
2017-11-26T19:23:04.750Z,4.37
2017-11-26T19:25:32.364Z,4.23
2017-11-26T19:27:59.989Z,4.40
2017-11-26T19:30:27.696Z,4.87
2017-11-26T19:32:55.342Z,7.53
2017-11-26T19:35:23.074Z,13.17
2017-11-26T19:37:50.769Z,17.17
2017-11-26T19:40:18.470Z,8.27
2017-11-26T19:42:46.079Z,8.43
2017-11-26T19:45:13.786Z,13.07
2017-11-26T19:47:41.421Z,15.90
2017-11-26T19:50:09.082Z,13.70
2017-11-26T19:52:36.786Z,13.23
2017-11-26T19:55:04.446Z,8.77
2017-11-26T19:57:32.085Z,7.07
2017-11-26T19:59:59.837Z,4.53
2017-11-26T20:02:27.479Z,4.33
2017-11-26T20:04:55.432Z,4.67
2017-11-26T20:10:04.558Z,3.70
2017-11-26T20:12:32.622Z,3.40
2017-11-26T20:15:00.828Z,4.47
2017-11-26T20:17:28.457Z,4.70
2017-11-26T20:19:56.140Z,3.83
2017-11-26T20:22:23.798Z,4.20
2017-11-26T20:24:51.446Z,5.20
2017-11-26T20:27:19.679Z,4.60
2017-11-26T20:29:47.344Z,4.27
2017-11-26T20:32:14.961Z,5.00
2017-11-26T20:34:43.500Z,4.27
2017-11-26T20:37:11.124Z,4.80
2017-11-26T20:39:39.583Z,4.60
2017-11-26T20:42:07.322Z,4.63
2017-11-26T20:44:34.977Z,5.07
2017-11-26T20:47:02.667Z,4.57
2017-11-26T20:49:30.377Z,4.77
2017-11-26T20:51:58.070Z,4.77
2017-11-26T20:54:26.047Z,4.77
2017-11-26T20:56:53.812Z,4.93
2017-11-26T20:59:21.379Z,5.03
2017-11-26T21:01:49.025Z,5.30
2017-11-26T21:04:17.283Z,4.60
2017-11-26T21:06:44.832Z,4.03
2017-11-26T21:09:12.473Z,5.43
2017-11-26T21:11:40.496Z,5.63
2017-11-26T21:14:08.049Z,5.33
2017-11-26T21:16:36.103Z,5.60
2017-11-26T21:19:03.698Z,5.63
2017-11-26T21:24:10.961Z,6.10
2017-11-26T21:26:38.482Z,5.47
2017-11-26T21:29:06.115Z,4.73
2017-11-26T21:31:33.798Z,4.47
2017-11-26T21:34:01.428Z,4.37
2017-11-26T21:36:29.055Z,4.53
2017-11-26T21:38:56.749Z,4.33
2017-11-26T21:41:24.381Z,4.97
2017-11-26T21:43:52.020Z,5.37
2017-11-26T21:46:19.682Z,4.70
2017-11-26T21:48:47.316Z,4.37
2017-11-26T21:51:14.930Z,4.57
2017-11-26T21:53:42.611Z,5.10
2017-11-26T21:58:41.956Z,5.43
2017-11-26T22:01:09.632Z,4.70
2017-11-26T22:03:37.244Z,4.33
2017-11-26T22:06:04.860Z,4.40
2017-11-26T22:08:32.621Z,5.23
2017-11-26T22:11:00.229Z,4.57
2017-11-26T22:13:27.858Z,4.70
2017-11-26T22:15:55.514Z,4.50
2017-11-26T22:18:23.130Z,4.93
2017-11-26T22:20:51.539Z,4.40
2017-11-26T22:23:19.226Z,5.03
2017-11-26T22:25:47.924Z,4.73
2017-11-26T22:28:17.600Z,5.40
2017-11-26T22:30:45.889Z,5.33
2017-11-26T22:35:57.374Z,7.03
2017-11-26T22:38:27.864Z,6.20
2017-11-26T22:40:54.136Z,5.30
2017-11-26T22:43:25.296Z,6.57
2017-11-26T22:45:52.917Z,7.57
2017-11-26T22:48:20.651Z,7.20
2017-11-26T22:50:50.846Z,7.03
2017-11-26T22:53:19.923Z,8.60
2017-11-26T22:55:48.445Z,7.47
2017-11-26T22:58:16.164Z,8.30
2017-11-26T23:00:43.777Z,7.50
2017-11-26T23:03:11.398Z,8.10
2017-11-26T23:05:39.083Z,6.90
2017-11-26T23:08:06.711Z,6.70
2017-11-26T23:10:34.331Z,7.30
2017-11-26T23:13:02.030Z,7.27
2017-11-26T23:15:29.661Z,6.47
2017-11-26T23:17:57.281Z,7.00
2017-11-26T23:20:25.225Z,6.77
2017-11-26T23:22:52.857Z,6.30
2017-11-26T23:25:20.489Z,5.10
2017-11-26T23:27:48.187Z,6.50
2017-11-26T23:30:16.766Z,6.57
2017-11-26T23:32:44.394Z,6.30
2017-11-26T23:35:12.073Z,6.53
2017-11-26T23:37:39.700Z,6.30
2017-11-26T23:40:07.333Z,6.30
2017-11-26T23:42:35.037Z,5.60
2017-11-26T23:45:02.657Z,6.23
2017-11-26T23:47:30.282Z,6.70
2017-11-26T23:49:57.960Z,5.90
2017-11-26T23:52:25.584Z,5.97
2017-11-26T23:54:53.594Z,6.07
2017-11-26T23:57:21.287Z,5.90
